ESSP/NRK METAR and TAF weather

Enter ICAO airport designator
Station Type Date Time Source
ESSP METAR 2019/07/17 18:20 UTC NOAA

ESSP 171820Z AUTO 00000KT 9999 NCD 19/14 Q1012


Station Type Date Time Source
ESSP Decoded METAR 2019/07/17 18:20 UTC NOAA

Norrkoping, Sweden (ESSP) 58-35N 016-09E 0M
Jul 17, 2019 - 02:20 PM EDT / 2019.07.17 1820 UTC
Wind: Calm:0
Visibility: greater than 7 mile(s):0
Temperature: 66 F (19 C)
Dew Point: 57 F (14 C)
Relative Humidity: 72%
Pressure (altimeter): 29.88 in. Hg (1012 hPa)
ob: ESSP 171820Z AUTO 00000KT 9999 NCD 19/14 Q1012
cycle: 18

Station Type Date Time Source
ESSP TAF 2018/01/01 02:31 UTC NOAA

TAF ESSP 010130Z 0102/0206 16002KT 9999 BKN004 PROB40 0102/0106 4000 BR SCT004

Example: see airport list